sensor_id;sensor_type;location;lat;lon;timestamp;temperature;humidity
8226;DHT22;4154;48.810;9.012;2023-03-23T00:00:00;13.80;83.30
8226;DHT22;4154;48.810;9.012;2023-03-23T00:02:31;13.80;83.00
8226;DHT22;4154;48.810;9.012;2023-03-23T00:05:01;13.90;82.60
8226;DHT22;4154;48.810;9.012;2023-03-23T00:07:28;13.90;82.70
8226;DHT22;4154;48.810;9.012;2023-03-23T00:09:55;13.80;83.20
8226;DHT22;4154;48.810;9.012;2023-03-23T00:12:25;13.90;83.60
8226;DHT22;4154;48.810;9.012;2023-03-23T00:15:02;13.80;83.50
8226;DHT22;4154;48.810;9.012;2023-03-23T00:17:30;13.80;83.80
8226;DHT22;4154;48.810;9.012;2023-03-23T00:22:26;13.90;83.10
8226;DHT22;4154;48.810;9.012;2023-03-23T00:24:53;13.90;83.70
8226;DHT22;4154;48.810;9.012;2023-03-23T00:27:20;13.90;84.10
8226;DHT22;4154;48.810;9.012;2023-03-23T00:29:48;13.90;83.80
8226;DHT22;4154;48.810;9.012;2023-03-23T00:32:18;13.90;83.80
8226;DHT22;4154;48.810;9.012;2023-03-23T00:34:53;13.80;84.20
8226;DHT22;4154;48.810;9.012;2023-03-23T00:37:19;13.80;84.30
8226;DHT22;4154;48.810;9.012;2023-03-23T00:39:45;13.80;84.40
8226;DHT22;4154;48.810;9.012;2023-03-23T00:42:13;13.80;84.30
8226;DHT22;4154;48.810;9.012;2023-03-23T00:44:40;13.80;84.50
8226;DHT22;4154;48.810;9.012;2023-03-23T00:47:06;14.30;92.70
8226;DHT22;4154;48.810;9.012;2023-03-23T00:49:34;15.40;86.20
8226;DHT22;4154;48.810;9.012;2023-03-23T00:52:02;13.80;85.00
8226;DHT22;4154;48.810;9.012;2023-03-23T00:54:40;13.80;84.90
8226;DHT22;4154;48.810;9.012;2023-03-23T00:57:06;13.70;92.50
8226;DHT22;4154;48.810;9.012;2023-03-23T00:59:32;13.90;84.60
8226;DHT22;4154;48.810;9.012;2023-03-23T01:01:57;13.80;84.60
8226;DHT22;4154;48.810;9.012;2023-03-23T01:04:23;13.80;84.50
8226;DHT22;4154;48.810;9.012;2023-03-23T01:06:50;13.90;84.60
8226;DHT22;4154;48.810;9.012;2023-03-23T01:09:18;13.90;84.40
8226;DHT22;4154;48.810;9.012;2023-03-23T01:11:47;13.90;84.00
8226;DHT22;4154;48.810;9.012;2023-03-23T01:14:16;13.90;84.00
8226;DHT22;4154;48.810;9.012;2023-03-23T01:16:43;14.00;84.00
8226;DHT22;4154;48.810;9.012;2023-03-23T01:19:09;14.00;84.00
8226;DHT22;4154;48.810;9.012;2023-03-23T01:21:36;13.90;83.70
8226;DHT22;4154;48.810;9.012;2023-03-23T01:24:02;13.90;83.60
8226;DHT22;4154;48.810;9.012;2023-03-23T01:26:28;13.90;83.60
8226;DHT22;4154;48.810;9.012;2023-03-23T01:28:54;14.00;83.50
8226;DHT22;4154;48.810;9.012;2023-03-23T01:31:23;14.00;83.50
8226;DHT22;4154;48.810;9.012;2023-03-23T01:33:50;14.10;92.30
8226;DHT22;4154;48.810;9.012;2023-03-23T01:36:23;13.90;83.50
8226;DHT22;4154;48.810;9.012;2023-03-23T01:38:52;13.90;84.10
8226;DHT22;4154;48.810;9.012;2023-03-23T01:41:19;13.90;84.00
8226;DHT22;4154;48.810;9.012;2023-03-23T01:44:06;13.90;83.90
8226;DHT22;4154;48.810;9.012;2023-03-23T01:46:38;13.80;84.60
8226;DHT22;4154;48.810;9.012;2023-03-23T01:49:16;13.80;84.70
8226;DHT22;4154;48.810;9.012;2023-03-23T01:52:00;13.80;84.60
8226;DHT22;4154;48.810;9.012;2023-03-23T01:54:29;13.80;84.40
8226;DHT22;4154;48.810;9.012;2023-03-23T01:57:11;13.80;84.60
8226;DHT22;4154;48.810;9.012;2023-03-23T01:59:42;13.70;84.40
8226;DHT22;4154;48.810;9.012;2023-03-23T02:02:12;13.70;84.10
8226;DHT22;4154;48.810;9.012;2023-03-23T02:04:38;13.70;84.10
8226;DHT22;4154;48.810;9.012;2023-03-23T02:07:05;13.40;92.50
8226;DHT22;4154;48.810;9.012;2023-03-23T02:09:31;13.60;84.30
8226;DHT22;4154;48.810;9.012;2023-03-23T02:11:57;13.60;84.00
8226;DHT22;4154;48.810;9.012;2023-03-23T02:14:25;13.60;83.70
8226;DHT22;4154;48.810;9.012;2023-03-23T02:20:33;13.50;83.30
8226;DHT22;4154;48.810;9.012;2023-03-23T02:34:51;13.50;83.60
8226;DHT22;4154;48.810;9.012;2023-03-23T02:37:27;13.50;84.00
8226;DHT22;4154;48.810;9.012;2023-03-23T02:42:40;13.50;84.70
8226;DHT22;4154;48.810;9.012;2023-03-23T02:45:10;13.40;84.50
8226;DHT22;4154;48.810;9.012;2023-03-23T02:47:38;13.50;84.50
8226;DHT22;4154;48.810;9.012;2023-03-23T02:50:10;13.40;84.40
8226;DHT22;4154;48.810;9.012;2023-03-23T02:52:39;13.40;84.60
8226;DHT22;4154;48.810;9.012;2023-03-23T02:55:08;13.50;84.60
8226;DHT22;4154;48.810;9.012;2023-03-23T02:57:37;13.50;84.70
8226;DHT22;4154;48.810;9.012;2023-03-23T03:00:10;13.50;84.50
8226;DHT22;4154;48.810;9.012;2023-03-23T03:02:40;13.50;84.70
8226;DHT22;4154;48.810;9.012;2023-03-23T03:05:45;13.50;84.30
8226;DHT22;4154;48.810;9.012;2023-03-23T03:11:08;13.50;84.00
8226;DHT22;4154;48.810;9.012;2023-03-23T03:13:45;13.50;84.10
8226;DHT22;4154;48.810;9.012;2023-03-23T03:19:07;13.50;84.00
8226;DHT22;4154;48.810;9.012;2023-03-23T03:21:42;13.50;84.30
8226;DHT22;4154;48.810;9.012;2023-03-23T03:24:11;13.50;83.90
8226;DHT22;4154;48.810;9.012;2023-03-23T03:26:43;13.50;83.90
8226;DHT22;4154;48.810;9.012;2023-03-23T03:29:15;13.60;84.10
8226;DHT22;4154;48.810;9.012;2023-03-23T03:31:43;13.50;84.30
8226;DHT22;4154;48.810;9.012;2023-03-23T03:34:11;13.60;83.90
8226;DHT22;4154;48.810;9.012;2023-03-23T03:36:43;13.60;84.00
8226;DHT22;4154;48.810;9.012;2023-03-23T03:39:11;13.60;84.30
8226;DHT22;4154;48.810;9.012;2023-03-23T03:41:40;13.50;84.30
8226;DHT22;4154;48.810;9.012;2023-03-23T03:44:07;13.40;84.50
8226;DHT22;4154;48.810;9.012;2023-03-23T03:46:34;13.50;84.40
8226;DHT22;4154;48.810;9.012;2023-03-23T03:49:02;13.50;84.70
8226;DHT22;4154;48.810;9.012;2023-03-23T03:51:30;13.50;92.90
8226;DHT22;4154;48.810;9.012;2023-03-23T03:53:56;13.50;85.00
8226;DHT22;4154;48.810;9.012;2023-03-23T03:56:22;13.50;85.10
8226;DHT22;4154;48.810;9.012;2023-03-23T03:58:50;14.60;86.40
8226;DHT22;4154;48.810;9.012;2023-03-23T04:01:17;13.50;85.10
8226;DHT22;4154;48.810;9.012;2023-03-23T04:03:46;13.50;85.10
8226;DHT22;4154;48.810;9.012;2023-03-23T04:08:39;13.50;85.00
8226;DHT22;4154;48.810;9.012;2023-03-23T04:11:10;13.50;85.40
8226;DHT22;4154;48.810;9.012;2023-03-23T04:13:39;13.50;85.60
8226;DHT22;4154;48.810;9.012;2023-03-23T04:16:05;13.50;85.40
8226;DHT22;4154;48.810;9.012;2023-03-23T04:18:32;13.50;85.40
8226;DHT22;4154;48.810;9.012;2023-03-23T04:21:00;13.60;85.40
8226;DHT22;4154;48.810;9.012;2023-03-23T04:23:29;13.60;85.30
8226;DHT22;4154;48.810;9.012;2023-03-23T04:25:58;13.60;85.60
8226;DHT22;4154;48.810;9.012;2023-03-23T04:28:25;13.60;85.30
8226;DHT22;4154;48.810;9.012;2023-03-23T04:30:53;13.70;85.20
8226;DHT22;4154;48.810;9.012;2023-03-23T04:33:23;13.70;85.60
8226;DHT22;4154;48.810;9.012;2023-03-23T04:35:54;13.80;84.90
8226;DHT22;4154;48.810;9.012;2023-03-23T04:38:22;13.80;84.60
8226;DHT22;4154;48.810;9.012;2023-03-23T04:40:51;13.80;84.70
8226;DHT22;4154;48.810;9.012;2023-03-23T04:43:19;13.80;84.90
8226;DHT22;4154;48.810;9.012;2023-03-23T04:45:47;13.90;84.50
8226;DHT22;4154;48.810;9.012;2023-03-23T04:48:24;13.90;84.60
8226;DHT22;4154;48.810;9.012;2023-03-23T04:50:52;13.90;84.30
8226;DHT22;4154;48.810;9.012;2023-03-23T04:53:18;13.90;84.30
8226;DHT22;4154;48.810;9.012;2023-03-23T04:55:45;14.00;84.20
8226;DHT22;4154;48.810;9.012;2023-03-23T04:58:13;13.90;84.30
8226;DHT22;4154;48.810;9.012;2023-03-23T05:00:41;13.90;84.70
8226;DHT22;4154;48.810;9.012;2023-03-23T05:03:11;13.90;84.20
8226;DHT22;4154;48.810;9.012;2023-03-23T05:05:36;14.00;84.00
8226;DHT22;4154;48.810;9.012;2023-03-23T05:08:02;13.90;84.20
8226;DHT22;4154;48.810;9.012;2023-03-23T05:10:28;13.90;84.30
8226;DHT22;4154;48.810;9.012;2023-03-23T05:12:54;13.90;84.30
8226;DHT22;4154;48.810;9.012;2023-03-23T05:15:20;13.90;84.30
8226;DHT22;4154;48.810;9.012;2023-03-23T05:17:46;13.90;84.10
8226;DHT22;4154;48.810;9.012;2023-03-23T05:20:15;13.90;84.00
8226;DHT22;4154;48.810;9.012;2023-03-23T05:22:48;14.00;84.20
8226;DHT22;4154;48.810;9.012;2023-03-23T05:25:15;13.90;84.00
8226;DHT22;4154;48.810;9.012;2023-03-23T05:27:44;14.90;85.20
8226;DHT22;4154;48.810;9.012;2023-03-23T05:30:14;13.80;84.30
8226;DHT22;4154;48.810;9.012;2023-03-23T05:32:42;13.80;84.30
8226;DHT22;4154;48.810;9.012;2023-03-23T05:35:10;13.80;92.60
8226;DHT22;4154;48.810;9.012;2023-03-23T05:37:38;13.90;84.50
8226;DHT22;4154;48.810;9.012;2023-03-23T05:40:05;13.90;84.60
8226;DHT22;4154;48.810;9.012;2023-03-23T05:42:33;13.90;84.50
8226;DHT22;4154;48.810;9.012;2023-03-23T05:45:00;13.90;84.60
8226;DHT22;4154;48.810;9.012;2023-03-23T05:47:30;13.90;85.60
8226;DHT22;4154;48.810;9.012;2023-03-23T05:49:58;13.90;85.00
8226;DHT22;4154;48.810;9.012;2023-03-23T05:52:24;13.90;85.00
8226;DHT22;4154;48.810;9.012;2023-03-23T05:55:08;13.90;85.30
8226;DHT22;4154;48.810;9.012;2023-03-23T05:57:34;13.90;85.40
8226;DHT22;4154;48.810;9.012;2023-03-23T06:00:00;13.90;85.70
8226;DHT22;4154;48.810;9.012;2023-03-23T06:02:39;13.80;85.80
8226;DHT22;4154;48.810;9.012;2023-03-23T06:05:05;13.80;85.90
8226;DHT22;4154;48.810;9.012;2023-03-23T06:07:32;13.80;86.10
8226;DHT22;4154;48.810;9.012;2023-03-23T06:12:23;13.80;86.00
8226;DHT22;4154;48.810;9.012;2023-03-23T06:14:49;13.70;86.60
8226;DHT22;4154;48.810;9.012;2023-03-23T06:17:16;13.70;93.50
8226;DHT22;4154;48.810;9.012;2023-03-23T06:19:43;14.30;87.50
8226;DHT22;4154;48.810;9.012;2023-03-23T06:22:10;13.70;86.70
8226;DHT22;4154;48.810;9.012;2023-03-23T06:24:36;13.80;86.90
8226;DHT22;4154;48.810;9.012;2023-03-23T06:27:02;13.90;93.80
8226;DHT22;4154;48.810;9.012;2023-03-23T06:29:28;13.70;87.30
8226;DHT22;4154;48.810;9.012;2023-03-23T06:32:00;13.70;87.40
8226;DHT22;4154;48.810;9.012;2023-03-23T06:34:27;14.00;87.80
8226;DHT22;4154;48.810;9.012;2023-03-23T06:36:53;13.70;87.70
8226;DHT22;4154;48.810;9.012;2023-03-23T06:39:19;13.70;87.70
8226;DHT22;4154;48.810;9.012;2023-03-23T06:41:46;13.70;87.70
8226;DHT22;4154;48.810;9.012;2023-03-23T06:44:11;13.70;87.90
8226;DHT22;4154;48.810;9.012;2023-03-23T06:46:38;13.70;88.20
8226;DHT22;4154;48.810;9.012;2023-03-23T06:49:05;13.80;88.40
8226;DHT22;4154;48.810;9.012;2023-03-23T06:53:57;13.80;88.90
8226;DHT22;4154;48.810;9.012;2023-03-23T06:58:49;13.90;89.00
8226;DHT22;4154;48.810;9.012;2023-03-23T07:01:16;13.90;89.60
8226;DHT22;4154;48.810;9.012;2023-03-23T07:03:42;13.90;89.80
8226;DHT22;4154;48.810;9.012;2023-03-23T07:06:09;14.70;90.40
8226;DHT22;4154;48.810;9.012;2023-03-23T07:08:35;13.90;90.10
8226;DHT22;4154;48.810;9.012;2023-03-23T07:11:02;13.90;90.30
8226;DHT22;4154;48.810;9.012;2023-03-23T07:13:28;14.00;90.30
8226;DHT22;4154;48.810;9.012;2023-03-23T07:18:21;13.90;89.50
8226;DHT22;4154;48.810;9.012;2023-03-23T07:20:48;14.00;89.10
8226;DHT22;4154;48.810;9.012;2023-03-23T07:23:18;14.80;89.70
8226;DHT22;4154;48.810;9.012;2023-03-23T07:25:45;14.00;88.90
8226;DHT22;4154;48.810;9.012;2023-03-23T07:28:12;14.00;88.80
8226;DHT22;4154;48.810;9.012;2023-03-23T07:33:06;14.00;88.30
8226;DHT22;4154;48.810;9.012;2023-03-23T07:35:33;14.00;88.70
8226;DHT22;4154;48.810;9.012;2023-03-23T07:38:01;14.00;88.60
8226;DHT22;4154;48.810;9.012;2023-03-23T07:40:27;14.00;89.20
8226;DHT22;4154;48.810;9.012;2023-03-23T07:42:56;14.10;88.70
8226;DHT22;4154;48.810;9.012;2023-03-23T07:45:23;14.10;89.40
8226;DHT22;4154;48.810;9.012;2023-03-23T07:47:50;14.10;89.30
8226;DHT22;4154;48.810;9.012;2023-03-23T07:50:16;14.20;89.60
8226;DHT22;4154;48.810;9.012;2023-03-23T07:52:43;14.20;89.80
8226;DHT22;4154;48.810;9.012;2023-03-23T07:55:11;14.40;89.20
8226;DHT22;4154;48.810;9.012;2023-03-23T07:57:43;14.40;89.60
8226;DHT22;4154;48.810;9.012;2023-03-23T08:00:10;14.40;89.40
8226;DHT22;4154;48.810;9.012;2023-03-23T08:02:51;14.50;89.90
8226;DHT22;4154;48.810;9.012;2023-03-23T08:05:23;14.50;89.60
8226;DHT22;4154;48.810;9.012;2023-03-23T08:07:52;14.60;89.40
8226;DHT22;4154;48.810;9.012;2023-03-23T08:10:20;14.60;89.40
8226;DHT22;4154;48.810;9.012;2023-03-23T08:12:52;14.70;89.70
8226;DHT22;4154;48.810;9.012;2023-03-23T08:15:20;14.70;89.60
8226;DHT22;4154;48.810;9.012;2023-03-23T08:17:47;14.70;90.00
8226;DHT22;4154;48.810;9.012;2023-03-23T08:20:13;14.70;90.10
8226;DHT22;4154;48.810;9.012;2023-03-23T08:22:41;14.80;90.10
8226;DHT22;4154;48.810;9.012;2023-03-23T08:25:09;14.70;90.20
8226;DHT22;4154;48.810;9.012;2023-03-23T08:27:37;14.70;90.30
8226;DHT22;4154;48.810;9.012;2023-03-23T08:30:12;14.80;90.20
8226;DHT22;4154;48.810;9.012;2023-03-23T08:32:41;14.80;90.30
8226;DHT22;4154;48.810;9.012;2023-03-23T08:35:11;14.80;90.40
8226;DHT22;4154;48.810;9.012;2023-03-23T08:37:38;14.80;90.50
8226;DHT22;4154;48.810;9.012;2023-03-23T08:40:07;14.60;95.90
8226;DHT22;4154;48.810;9.012;2023-03-23T08:42:42;14.90;90.90
8226;DHT22;4154;48.810;9.012;2023-03-23T08:45:11;14.90;90.90
8226;DHT22;4154;48.810;9.012;2023-03-23T08:47:40;15.00;90.70
8226;DHT22;4154;48.810;9.012;2023-03-23T08:50:07;15.00;90.70
8226;DHT22;4154;48.810;9.012;2023-03-23T08:52:36;15.00;90.90
8226;DHT22;4154;48.810;9.012;2023-03-23T08:55:02;15.00;90.90
8226;DHT22;4154;48.810;9.012;2023-03-23T08:57:30;15.00;90.90
8226;DHT22;4154;48.810;9.012;2023-03-23T08:59:55;15.00;90.70
8226;DHT22;4154;48.810;9.012;2023-03-23T09:02:26;15.00;90.70
8226;DHT22;4154;48.810;9.012;2023-03-23T09:04:55;15.00;90.80
8226;DHT22;4154;48.810;9.012;2023-03-23T09:07:21;15.10;90.90
8226;DHT22;4154;48.810;9.012;2023-03-23T09:09:47;15.00;90.80
8226;DHT22;4154;48.810;9.012;2023-03-23T09:12:13;15.10;91.00
8226;DHT22;4154;48.810;9.012;2023-03-23T09:17:05;15.20;95.60
8226;DHT22;4154;48.810;9.012;2023-03-23T09:19:33;15.30;90.80
8226;DHT22;4154;48.810;9.012;2023-03-23T09:22:00;15.40;90.80
8226;DHT22;4154;48.810;9.012;2023-03-23T09:26:53;15.50;90.50
8226;DHT22;4154;48.810;9.012;2023-03-23T09:34:13;15.50;90.40
8226;DHT22;4154;48.810;9.012;2023-03-23T09:36:41;15.50;90.70
8226;DHT22;4154;48.810;9.012;2023-03-23T09:39:08;15.50;90.50
8226;DHT22;4154;48.810;9.012;2023-03-23T09:45:06;15.50;90.90
8226;DHT22;4154;48.810;9.012;2023-03-23T09:47:52;15.60;90.50
8226;DHT22;4154;48.810;9.012;2023-03-23T09:50:33;15.80;90.40
8226;DHT22;4154;48.810;9.012;2023-03-23T09:53:17;15.70;90.60
8226;DHT22;4154;48.810;9.012;2023-03-23T09:55:46;15.80;90.60
8226;DHT22;4154;48.810;9.012;2023-03-23T09:58:18;15.80;90.00
8226;DHT22;4154;48.810;9.012;2023-03-23T10:01:04;15.80;90.20
8226;DHT22;4154;48.810;9.012;2023-03-23T10:03:42;15.80;90.40
8226;DHT22;4154;48.810;9.012;2023-03-23T10:06:12;15.70;90.30
8226;DHT22;4154;48.810;9.012;2023-03-23T10:08:45;15.90;90.40
8226;DHT22;4154;48.810;9.012;2023-03-23T10:11:25;16.50;90.90
8226;DHT22;4154;48.810;9.012;2023-03-23T10:25:52;18.10;91.90
8226;DHT22;4154;48.810;9.012;2023-03-23T10:28:36;16.00;90.30
8226;DHT22;4154;48.810;9.012;2023-03-23T10:31:15;16.10;90.60
8226;DHT22;4154;48.810;9.012;2023-03-23T10:33:48;16.00;90.70
8226;DHT22;4154;48.810;9.012;2023-03-23T10:36:21;16.20;95.90
8226;DHT22;4154;48.810;9.012;2023-03-23T10:39:13;16.20;90.90
8226;DHT22;4154;48.810;9.012;2023-03-23T10:41:51;16.50;91.10
8226;DHT22;4154;48.810;9.012;2023-03-23T10:44:23;16.40;90.70
8226;DHT22;4154;48.810;9.012;2023-03-23T10:47:08;16.40;90.90
8226;DHT22;4154;48.810;9.012;2023-03-23T10:52:03;16.30;90.60
8226;DHT22;4154;48.810;9.012;2023-03-23T10:54:46;16.30;90.90
8226;DHT22;4154;48.810;9.012;2023-03-23T10:57:25;16.30;96.30
8226;DHT22;4154;48.810;9.012;2023-03-23T11:00:03;16.30;91.00
8226;DHT22;4154;48.810;9.012;2023-03-23T11:02:44;16.40;91.10
8226;DHT22;4154;48.810;9.012;2023-03-23T11:05:31;16.50;90.30
8226;DHT22;4154;48.810;9.012;2023-03-23T11:08:00;16.50;90.50
8226;DHT22;4154;48.810;9.012;2023-03-23T11:10:39;16.40;90.40
8226;DHT22;4154;48.810;9.012;2023-03-23T11:13:15;16.40;90.40
8226;DHT22;4154;48.810;9.012;2023-03-23T11:15:44;16.40;90.20
8226;DHT22;4154;48.810;9.012;2023-03-23T11:18:23;16.40;90.40
8226;DHT22;4154;48.810;9.012;2023-03-23T11:20:54;16.20;90.50
8226;DHT22;4154;48.810;9.012;2023-03-23T11:25:57;16.00;90.90
8226;DHT22;4154;48.810;9.012;2023-03-23T11:28:32;16.10;90.90
8226;DHT22;4154;48.810;9.012;2023-03-23T11:31:02;16.20;91.00
8226;DHT22;4154;48.810;9.012;2023-03-23T11:33:55;16.50;90.90
8226;DHT22;4154;48.810;9.012;2023-03-23T11:36:40;16.50;91.40
8226;DHT22;4154;48.810;9.012;2023-03-23T11:41:58;16.70;90.10
8226;DHT22;4154;48.810;9.012;2023-03-23T11:44:33;16.70;90.30
8226;DHT22;4154;48.810;9.012;2023-03-23T11:47:16;17.10;95.20
8226;DHT22;4154;48.810;9.012;2023-03-23T11:50:23;16.80;90.20
8226;DHT22;4154;48.810;9.012;2023-03-23T11:56:26;17.00;90.50
8226;DHT22;4154;48.810;9.012;2023-03-23T11:58:57;17.00;90.40
8226;DHT22;4154;48.810;9.012;2023-03-23T12:04:52;17.00;90.30
8226;DHT22;4154;48.810;9.012;2023-03-23T12:07:53;17.00;90.30
8226;DHT22;4154;48.810;9.012;2023-03-23T12:22:37;17.00;94.50
8226;DHT22;4154;48.810;9.012;2023-03-23T12:27:58;17.10;88.90
8226;DHT22;4154;48.810;9.012;2023-03-23T12:33:45;17.20;89.90
8226;DHT22;4154;48.810;9.012;2023-03-23T12:36:42;17.00;89.50
8226;DHT22;4154;48.810;9.012;2023-03-23T12:42:35;17.20;88.40
8226;DHT22;4154;48.810;9.012;2023-03-23T12:45:50;17.10;87.80
8226;DHT22;4154;48.810;9.012;2023-03-23T12:48:26;17.20;88.20
8226;DHT22;4154;48.810;9.012;2023-03-23T12:51:26;17.10;88.60
8226;DHT22;4154;48.810;9.012;2023-03-23T12:54:19;17.20;87.30
8226;DHT22;4154;48.810;9.012;2023-03-23T12:57:16;17.20;93.50
8226;DHT22;4154;48.810;9.012;2023-03-23T13:00:12;17.10;87.90
8226;DHT22;4154;48.810;9.012;2023-03-23T13:03:14;16.90;87.10
8226;DHT22;4154;48.810;9.012;2023-03-23T13:06:34;16.90;87.30
8226;DHT22;4154;48.810;9.012;2023-03-23T13:11:34;17.00;88.10
8226;DHT22;4154;48.810;9.012;2023-03-23T13:14:24;17.00;88.40
8226;DHT22;4154;48.810;9.012;2023-03-23T13:17:48;17.70;89.50
8226;DHT22;4154;48.810;9.012;2023-03-23T13:23:46;17.20;87.50
8226;DHT22;4154;48.810;9.012;2023-03-23T13:26:19;17.30;87.60
8226;DHT22;4154;48.810;9.012;2023-03-23T13:31:32;17.20;86.60
8226;DHT22;4154;48.810;9.012;2023-03-23T13:34:15;17.20;86.00
8226;DHT22;4154;48.810;9.012;2023-03-23T13:39:25;17.20;87.00
8226;DHT22;4154;48.810;9.012;2023-03-23T13:57:57;18.20;89.80
8226;DHT22;4154;48.810;9.012;2023-03-23T14:01:02;17.00;88.70
8226;DHT22;4154;48.810;9.012;2023-03-23T14:03:40;17.50;88.60
8226;DHT22;4154;48.810;9.012;2023-03-23T14:06:19;17.20;93.70
8226;DHT22;4154;48.810;9.012;2023-03-23T14:08:51;17.20;86.60
8226;DHT22;4154;48.810;9.012;2023-03-23T14:11:24;17.30;86.80
8226;DHT22;4154;48.810;9.012;2023-03-23T14:14:06;17.20;87.20
8226;DHT22;4154;48.810;9.012;2023-03-23T14:16:44;17.30;86.70
8226;DHT22;4154;48.810;9.012;2023-03-23T14:19:27;17.10;87.00
8226;DHT22;4154;48.810;9.012;2023-03-23T14:22:00;17.30;86.30
8226;DHT22;4154;48.810;9.012;2023-03-23T14:24:32;17.30;87.20
8226;DHT22;4154;48.810;9.012;2023-03-23T14:27:24;17.70;93.50
8226;DHT22;4154;48.810;9.012;2023-03-23T14:30:01;19.70;89.60
8226;DHT22;4154;48.810;9.012;2023-03-23T14:32:31;17.30;86.40
8226;DHT22;4154;48.810;9.012;2023-03-23T14:35:05;17.30;94.10
8226;DHT22;4154;48.810;9.012;2023-03-23T14:40:05;17.60;86.60
8226;DHT22;4154;48.810;9.012;2023-03-23T14:42:34;17.70;85.70
8226;DHT22;4154;48.810;9.012;2023-03-23T14:45:04;17.60;86.00
8226;DHT22;4154;48.810;9.012;2023-03-23T14:47:34;17.40;92.80
8226;DHT22;4154;48.810;9.012;2023-03-23T14:50:05;17.70;85.50
8226;DHT22;4154;48.810;9.012;2023-03-23T14:52:48;17.70;85.70
8226;DHT22;4154;48.810;9.012;2023-03-23T14:55:33;17.70;85.60
8226;DHT22;4154;48.810;9.012;2023-03-23T14:58:06;17.70;84.90
8226;DHT22;4154;48.810;9.012;2023-03-23T15:00:40;17.70;85.30
8226;DHT22;4154;48.810;9.012;2023-03-23T15:03:30;17.70;85.50
8226;DHT22;4154;48.810;9.012;2023-03-23T15:06:05;17.70;84.40
8226;DHT22;4154;48.810;9.012;2023-03-23T15:11:08;18.00;92.50
8226;DHT22;4154;48.810;9.012;2023-03-23T15:13:54;17.70;84.60
8226;DHT22;4154;48.810;9.012;2023-03-23T15:16:28;17.80;85.10
8226;DHT22;4154;48.810;9.012;2023-03-23T15:19:04;17.70;84.30
8226;DHT22;4154;48.810;9.012;2023-03-23T15:24:36;17.70;83.80
8226;DHT22;4154;48.810;9.012;2023-03-23T15:29:59;17.70;83.10
8226;DHT22;4154;48.810;9.012;2023-03-23T15:32:41;17.60;83.50
8226;DHT22;4154;48.810;9.012;2023-03-23T15:35:16;17.60;83.60
8226;DHT22;4154;48.810;9.012;2023-03-23T15:38:23;17.40;92.10
8226;DHT22;4154;48.810;9.012;2023-03-23T15:40:52;17.50;83.10
8226;DHT22;4154;48.810;9.012;2023-03-23T15:43:27;17.50;83.50
8226;DHT22;4154;48.810;9.012;2023-03-23T15:46:16;17.40;83.00
8226;DHT22;4154;48.810;9.012;2023-03-23T15:49:10;17.50;82.00
8226;DHT22;4154;48.810;9.012;2023-03-23T15:54:13;17.50;82.10
8226;DHT22;4154;48.810;9.012;2023-03-23T15:56:43;17.50;82.00
8226;DHT22;4154;48.810;9.012;2023-03-23T15:59:10;17.50;81.00
8226;DHT22;4154;48.810;9.012;2023-03-23T16:01:42;17.50;81.00
8226;DHT22;4154;48.810;9.012;2023-03-23T16:04:16;17.50;80.80
8226;DHT22;4154;48.810;9.012;2023-03-23T16:06:56;17.40;81.00
8226;DHT22;4154;48.810;9.012;2023-03-23T16:16:47;17.20;80.10
8226;DHT22;4154;48.810;9.012;2023-03-23T16:19:15;17.20;80.30
8226;DHT22;4154;48.810;9.012;2023-03-23T16:29:12;16.90;82.00
8226;DHT22;4154;48.810;9.012;2023-03-23T16:34:08;16.80;82.50
8226;DHT22;4154;48.810;9.012;2023-03-23T16:43:56;16.60;82.70
8226;DHT22;4154;48.810;9.012;2023-03-23T16:46:22;16.30;84.70
8226;DHT22;4154;48.810;9.012;2023-03-23T16:56:09;16.70;82.80
8226;DHT22;4154;48.810;9.012;2023-03-23T16:58:35;16.50;91.80
8226;DHT22;4154;48.810;9.012;2023-03-23T17:03:28;16.60;82.90
8226;DHT22;4154;48.810;9.012;2023-03-23T17:05:54;16.60;83.40
8226;DHT22;4154;48.810;9.012;2023-03-23T17:13:13;16.50;83.40
8226;DHT22;4154;48.810;9.012;2023-03-23T17:15:41;16.50;83.70
8226;DHT22;4154;48.810;9.012;2023-03-23T17:20:35;16.40;83.40
8226;DHT22;4154;48.810;9.012;2023-03-23T17:23:01;16.40;83.80
8226;DHT22;4154;48.810;9.012;2023-03-23T17:25:28;16.40;83.90
8226;DHT22;4154;48.810;9.012;2023-03-23T17:27:57;16.30;82.90
8226;DHT22;4154;48.810;9.012;2023-03-23T17:30:26;16.60;83.70
8226;DHT22;4154;48.810;9.012;2023-03-23T17:35:18;16.30;83.20
8226;DHT22;4154;48.810;9.012;2023-03-23T17:37:46;16.50;83.60
8226;DHT22;4154;48.810;9.012;2023-03-23T17:48:10;16.10;83.50
8226;DHT22;4154;48.810;9.012;2023-03-23T17:50:52;16.10;83.50
8226;DHT22;4154;48.810;9.012;2023-03-23T17:53:31;16.10;83.70
8226;DHT22;4154;48.810;9.012;2023-03-23T18:03:34;15.90;84.90
8226;DHT22;4154;48.810;9.012;2023-03-23T18:06:10;15.90;85.00
8226;DHT22;4154;48.810;9.012;2023-03-23T18:09:00;15.90;84.90
8226;DHT22;4154;48.810;9.012;2023-03-23T18:11:56;15.90;85.40
8226;DHT22;4154;48.810;9.012;2023-03-23T18:14:30;15.90;85.30
8226;DHT22;4154;48.810;9.012;2023-03-23T18:19:22;15.90;85.30
8226;DHT22;4154;48.810;9.012;2023-03-23T18:24:14;15.90;85.50
8226;DHT22;4154;48.810;9.012;2023-03-23T18:29:22;15.80;85.60
8226;DHT22;4154;48.810;9.012;2023-03-23T18:34:14;15.70;85.60
8226;DHT22;4154;48.810;9.012;2023-03-23T18:36:40;16.00;86.50
8226;DHT22;4154;48.810;9.012;2023-03-23T18:39:06;15.70;86.20
8226;DHT22;4154;48.810;9.012;2023-03-23T18:41:34;15.80;86.10
8226;DHT22;4154;48.810;9.012;2023-03-23T18:44:00;15.70;86.40
8226;DHT22;4154;48.810;9.012;2023-03-23T18:48:52;15.70;85.70
8226;DHT22;4154;48.810;9.012;2023-03-23T18:51:18;15.70;86.40
8226;DHT22;4154;48.810;9.012;2023-03-23T18:53:43;15.60;86.60
8226;DHT22;4154;48.810;9.012;2023-03-23T18:56:12;15.60;86.50
8226;DHT22;4154;48.810;9.012;2023-03-23T18:58:43;15.60;87.00
8226;DHT22;4154;48.810;9.012;2023-03-23T19:01:15;15.60;86.90
8226;DHT22;4154;48.810;9.012;2023-03-23T19:03:41;15.50;87.20
8226;DHT22;4154;48.810;9.012;2023-03-23T19:06:17;15.50;87.50
8226;DHT22;4154;48.810;9.012;2023-03-23T19:08:46;15.90;88.00
8226;DHT22;4154;48.810;9.012;2023-03-23T19:11:13;15.50;87.70
8226;DHT22;4154;48.810;9.012;2023-03-23T19:13:39;15.50;87.70
8226;DHT22;4154;48.810;9.012;2023-03-23T19:16:05;15.40;87.70
8226;DHT22;4154;48.810;9.012;2023-03-23T19:18:32;15.50;88.00
8226;DHT22;4154;48.810;9.012;2023-03-23T19:20:58;15.50;88.10
8226;DHT22;4154;48.810;9.012;2023-03-23T19:23:24;15.50;94.20
8226;DHT22;4154;48.810;9.012;2023-03-23T19:25:52;15.50;88.40
8226;DHT22;4154;48.810;9.012;2023-03-23T19:28:20;15.40;88.40
8226;DHT22;4154;48.810;9.012;2023-03-23T19:30:48;15.30;88.60
8226;DHT22;4154;48.810;9.012;2023-03-23T19:33:18;15.20;94.40
8226;DHT22;4154;48.810;9.012;2023-03-23T19:35:48;15.30;88.80
8226;DHT22;4154;48.810;9.012;2023-03-23T19:38:19;15.30;88.80
8226;DHT22;4154;48.810;9.012;2023-03-23T19:40:55;16.90;90.20
8226;DHT22;4154;48.810;9.012;2023-03-23T19:43:27;15.30;88.80
8226;DHT22;4154;48.810;9.012;2023-03-23T19:45:56;15.30;89.10
8226;DHT22;4154;48.810;9.012;2023-03-23T19:48:22;15.50;89.40
8226;DHT22;4154;48.810;9.012;2023-03-23T19:50:49;15.20;89.20
8226;DHT22;4154;48.810;9.012;2023-03-23T19:53:19;15.20;89.30
8226;DHT22;4154;48.810;9.012;2023-03-23T19:55:45;16.30;90.20
8226;DHT22;4154;48.810;9.012;2023-03-23T19:58:11;15.20;89.40
8226;DHT22;4154;48.810;9.012;2023-03-23T20:00:37;15.20;89.70
8226;DHT22;4154;48.810;9.012;2023-03-23T20:03:03;15.20;90.00
8226;DHT22;4154;48.810;9.012;2023-03-23T20:05:30;15.50;90.10